This is the latest recevied weather packets stored in our database for station/object KI4HRG. If no packets are shown the sender has not sent any weather packets the latest 10 day(s).
| Time | Temp. | Humidity | Pressure | Rain* | Wind** | Luminosity | Snow |
|---|---|---|---|---|---|---|---|
| 1777914207 | 25° C | 44% | 1016.7 hPa | 0 mm | - | 695 W/m² | - |
| 1777913903 | 24.44° C | 46% | 1016.6 hPa | 0 mm | - | 737 W/m² | - |
| 1777913600 | 24.44° C | 45% | 1016.8 hPa | 0 mm | - | 731 W/m² | - |
| 1777913296 | 23.33° C | 48% | 1016.8 hPa | 0 mm | - | 730 W/m² | - |
| 1777912994 | 23.33° C | 49% | 1016.9 hPa | 0 mm | - | 741 W/m² | - |
| 1777912689 | 23.89° C | 47% | 1016.9 hPa | 0 mm | - | 729 W/m² | - |
| 1777912385 | 24.44° C | 44% | 1016.8 hPa | 0 mm | - | 728 W/m² | - |
| 1777912082 | 25° C | 45% | 1016.9 hPa | 0 mm | - | 685 W/m² | - |
| 1777911777 | 23.89° C | 47% | 1017 hPa | 0 mm | - | 736 W/m² | - |
| 1777911474 | 23.89° C | 48% | 1017.2 hPa | 0 mm | - | 776 W/m² | - |
| 1777911172 | 24.44° C | 46% | 1017.3 hPa | 0 mm | - | 758 W/m² | - |
| 1777910869 | 22.78° C | 49% | 1017.3 hPa | 0 mm | - | 729 W/m² | - |
| 1777910565 | 23.33° C | 49% | 1017.4 hPa | 0 mm | - | 729 W/m² | - |
| 1777910263 | 23.89° C | 48% | 1017.5 hPa | 0 mm | - | 737 W/m² | - |
| 1777909959 | 23.89° C | 49% | 1017.4 hPa | 0 mm | - | 744 W/m² | - |
| 1777909656 | 23.33° C | 49% | 1017.4 hPa | 0 mm | - | 733 W/m² | - |
| 1777909354 | 23.33° C | 49% | 1017.4 hPa | 0 mm | - | 711 W/m² | - |
| 1777909051 | 21.67° C | 54% | 1017.1 hPa | 0 mm | - | 732 W/m² | - |
| 1777908749 | 22.22° C | 53% | 1017.5 hPa | 0 mm | - | 736 W/m² | - |
| 1777908446 | 21.67° C | 55% | 1017.4 hPa | 0 mm | - | 746 W/m² | - |
| 1777908143 | 22.22° C | 51% | 1017.5 hPa | 0 mm | - | 766 W/m² | - |
| 1777907839 | 21.67° C | 54% | 1017.3 hPa | 0 mm | - | 752 W/m² | - |
| 1777907535 | 21.11° C | 57% | 1017.4 hPa | 0 mm | - | 720 W/m² | - |
| 1777907231 | 21.11° C | 56% | 1017.5 hPa | 0 mm | - | 670 W/m² | - |
| 1777906927 | 20.56° C | 55% | 1017.6 hPa | 0 mm | - | 782 W/m² | - |
* Rain latest hour (hover to see other rain measurements)
** Current wind speed in m/s (hover to see current wind gust speed)